Time;durP1;ratioP1;P1;durP2;ratioP2;P2;SDS_P1;SDS_P2;PMS_P1;PMS_P2;Temp;Humidity;BMP_temperature;BMP_pressure;BME280_temperature;BME280_humidity;BME280_pressure;Samples;Min_cycle;Max_cycle;Signal;HPM_P1;HPM_P2
2021/03/26 00:01:17;;;;;;;12.77;3.10;;;;;;;6.07;79.78;101890.09;5092914;28;20028;-74
2021/03/26 00:03:45;;;;;;;9.37;2.90;;;;;;;6.02;79.87;101885.50;5093134;28;20572;-73
2021/03/26 00:06:17;;;;;;;11.63;3.77;;;;;;;6.06;79.61;101883.22;5093160;28;20035;-73
2021/03/26 00:08:43;;;;;;;8.30;2.90;;;;;;;5.94;79.76;101890.16;5092918;28;20389;-74
2021/03/26 00:11:09;;;;;;;13.60;3.63;;;;;;;6.03;79.93;101883.03;5074566;28;20114;-75
2021/03/26 00:13:37;;;;;;;9.77;3.07;;;;;;;5.93;79.80;101881.63;5092592;28;20082;-75
2021/03/26 00:16:04;;;;;;;16.13;4.10;;;;;;;5.89;80.37;101884.81;5092863;28;20031;-74
2021/03/26 00:18:29;;;;;;;14.57;3.30;;;;;;;5.91;80.20;101874.69;5092941;28;20441;-75
2021/03/26 00:20:54;;;;;;;8.13;3.40;;;;;;;5.85;80.34;101870.09;5092567;28;20059;-77
2021/03/26 00:23:20;;;;;;;13.70;4.43;;;;;;;5.86;80.36;101866.75;5074655;28;20051;-74
2021/03/26 00:25:46;;;;;;;9.15;3.60;;;;;;;5.84;80.76;101864.84;5074372;28;20036;-75
2021/03/26 00:28:11;;;;;;;9.98;3.65;;;;;;;5.73;80.55;101860.81;5075377;28;20031;-75
2021/03/26 00:30:37;;;;;;;12.25;3.63;;;;;;;5.73;80.88;101860.81;5092416;28;20494;-75
2021/03/26 00:33:05;;;;;;;9.13;3.53;;;;;;;5.69;80.96;101859.75;5074544;28;20111;-76
2021/03/26 00:35:31;;;;;;;8.83;3.07;;;;;;;5.65;81.04;101859.47;5074178;28;20039;-74
2021/03/26 00:37:57;;;;;;;7.15;2.95;;;;;;;5.59;81.20;101857.44;5094477;28;20020;-75
2021/03/26 00:40:23;;;;;;;11.98;3.38;;;;;;;5.61;81.37;101855.88;5112562;28;20095;-73
2021/03/26 00:42:49;;;;;;;;;;;;;;;5.66;80.76;101858.69;5094898;28;20110;-74
2021/03/26 00:45:19;;;;;;;11.47;3.20;;;;;;;5.58;80.79;101851.47;5112266;28;20010;-72
2021/03/26 00:47:45;;;;;;;10.23;3.63;;;;;;;5.60;80.54;101855.00;5101405;28;20075;-74
2021/03/26 00:50:33;;;;;;;11.15;3.47;;;;;;;5.62;80.40;101850.88;5103882;28;20055;-74
2021/03/26 00:53:02;;;;;;;12.63;3.80;;;;;;;5.74;80.09;101849.81;5112664;28;20164;-75
2021/03/26 00:55:27;;;;;;;11.60;3.87;;;;;;;5.77;80.00;101848.31;5111967;28;20040;-74
2021/03/26 00:57:53;;;;;;;8.63;4.13;;;;;;;5.81;79.75;101844.28;5113008;28;20160;-75
2021/03/26 01:00:22;;;;;;;12.55;4.80;;;;;;;5.78;79.45;101844.97;5112791;28;20020;-76
2021/03/26 01:02:49;;;;;;;16.20;4.30;;;;;;;5.76;79.54;101836.38;5094292;28;20059;-75
2021/03/26 01:05:19;;;;;;;12.87;4.90;;;;;;;5.80;79.82;101829.78;5112091;28;20031;-74
2021/03/26 01:07:46;;;;;;;11.77;5.10;;;;;;;5.81;79.45;101827.31;5112314;28;20031;-74
2021/03/26 01:10:14;;;;;;;12.93;4.63;;;;;;;5.78;79.61;101822.03;5111997;28;20035;-76
2021/03/26 01:12:39;;;;;;;9.73;5.10;;;;;;;5.81;79.59;101818.78;5111847;28;20031;-75
2021/03/26 01:15:08;;;;;;;14.23;5.53;;;;;;;5.81;79.37;101816.25;5094869;28;20017;-75
2021/03/26 01:17:33;;;;;;;14.50;5.57;;;;;;;5.75;79.43;101815.88;5091698;28;20339;-74
2021/03/26 01:19:58;;;;;;;17.92;5.47;;;;;;;5.74;79.54;101812.47;5091853;28;20020;-75
2021/03/26 01:22:24;;;;;;;11.30;4.80;;;;;;;5.80;79.25;101811.94;5091444;28;20035;-75
2021/03/26 01:24:49;;;;;;;14.45;5.40;;;;;;;5.82;79.60;101808.69;5091387;28;20016;-74
2021/03/26 01:27:15;;;;;;;13.43;5.95;;;;;;;5.81;79.84;101808.59;5091669;28;20038;-75
2021/03/26 01:29:40;;;;;;;12.00;4.97;;;;;;;5.90;79.95;101804.09;5074564;28;20076;-75
2021/03/26 01:32:06;;;;;;;14.27;5.27;;;;;;;5.95;80.01;101796.69;5091181;28;20035;-74
2021/03/26 01:34:32;;;;;;;9.73;5.05;;;;;;;6.08;79.51;101800.00;5091465;28;20755;-74
2021/03/26 01:36:57;;;;;;;14.02;5.32;;;;;;;6.15;79.55;101797.00;5073478;28;20027;-75
2021/03/26 01:39:22;;;;;;;10.60;5.47;;;;;;;6.19;78.82;101791.31;5073244;28;20504;-74
2021/03/26 01:41:48;;;;;;;13.70;6.55;;;;;;;6.36;78.44;101791.38;5072972;28;20032;-75
2021/03/26 01:44:16;;;;;;;15.20;5.40;;;;;;;6.32;78.10;101785.22;5091135;28;20031;-73
2021/03/26 01:46:43;;;;;;;15.30;5.77;;;;;;;6.39;77.94;101783.88;5091078;28;20071;-73
2021/03/26 01:49:09;;;;;;;17.07;5.53;;;;;;;6.26;78.09;101781.44;5072923;28;20481;-74
2021/03/26 01:51:39;;;;;;;14.57;5.53;;;;;;;6.34;78.28;101780.19;5090904;28;20524;-75
2021/03/26 01:54:06;;;;;;;17.40;6.27;;;;;;;6.33;78.26;101775.88;5090805;28;20413;-73
2021/03/26 01:56:32;;;;;;;15.97;6.27;;;;;;;6.35;78.64;101779.41;5072854;28;20048;-74
2021/03/26 01:58:59;;;;;;;14.60;6.18;;;;;;;6.38;78.54;101774.47;5091517;28;20523;-74
2021/03/26 02:01:34;;;;;;;14.83;5.70;;;;;;;6.40;78.37;101773.75;5072583;28;20119;-75
2021/03/26 02:04:04;;;;;;;13.63;6.17;;;;;;;6.49;78.34;101773.38;5090816;28;20103;-75
2021/03/26 02:06:33;;;;;;;14.17;5.90;;;;;;;6.51;78.28;101767.59;5090101;28;20043;-75
2021/03/26 02:09:09;;;;;;;18.37;6.00;;;;;;;6.60;78.21;101769.75;5072501;28;20032;-75
2021/03/26 02:11:47;;;;;;;15.07;6.07;;;;;;;6.53;78.73;101771.09;5090401;28;20118;-75
2021/03/26 02:14:16;;;;;;;11.47;6.00;;;;;;;6.66;78.39;101775.19;5108434;28;20031;-73
2021/03/26 02:16:42;;;;;;;16.40;6.23;;;;;;;6.70;78.97;101766.00;5092666;28;20126;-74
2021/03/26 02:19:24;;;;;;;19.73;7.07;;;;;;;6.61;79.86;101761.31;5110913;28;20028;-77
2021/03/26 02:21:50;;;;;;;17.67;6.63;;;;;;;6.59;81.00;101759.47;5110685;28;20439;-79
2021/03/26 02:24:16;;;;;;;;;;;;;;;6.57;80.70;101767.03;5100025;28;20027;-77
2021/03/26 02:26:46;;;;;;;17.20;6.07;;;;;;;6.67;79.70;101747.97;5090274;28;19920;-76
2021/03/26 02:29:26;;;;;;;16.80;6.90;;;;;;;6.64;80.32;101748.69;5098388;28;20027;-76
2021/03/26 02:32:05;;;;;;;16.67;6.87;;;;;;;6.77;79.37;101740.00;5101933;28;20051;-76
2021/03/26 02:34:31;;;;;;;12.33;6.60;;;;;;;6.71;79.64;101745.66;5080526;28;20024;-77
2021/03/26 02:37:06;;;;;;;12.95;6.43;;;;;;;6.89;78.19;101729.59;5089767;28;20086;-76
2021/03/26 02:39:43;;;;;;;13.93;6.73;;;;;;;6.90;78.73;101731.34;5081741;28;20080;-76
2021/03/26 02:42:30;;;;;;;18.52;7.97;;;;;;;6.81;79.68;101736.81;5084621;28;20056;-75
2021/03/26 02:45:12;;;;;;;14.30;8.10;;;;;;;6.80;79.44;101735.94;5071471;28;20028;-76
2021/03/26 02:47:45;;;;;;;18.27;9.13;;;;;;;6.79;80.36;101739.28;5072078;28;20112;-77
2021/03/26 02:50:17;;;;;;;20.57;9.27;;;;;;;6.88;80.95;101731.25;5071896;28;20054;-75
2021/03/26 02:53:04;;;;;;;23.93;10.17;;;;;;;6.99;80.03;101742.03;5089888;28;20115;-76
2021/03/26 02:55:57;;;;;;;20.50;11.63;;;;;;;7.03;80.96;101729.50;5071868;28;20024;-77
2021/03/26 02:58:26;;;;;;;21.90;11.80;;;;;;;6.97;82.02;101730.84;5071652;28;20027;-77
2021/03/26 03:01:05;;;;;;;22.57;12.70;;;;;;;6.99;82.03;101740.34;5089928;28;20489;-78
2021/03/26 03:03:33;;;;;;;25.33;12.70;;;;;;;6.96;82.94;101742.75;5089905;28;20027;-76
2021/03/26 03:06:06;;;;;;;29.87;14.13;;;;;;;7.00;82.89;101723.34;5092798;28;20358;-76
2021/03/26 03:08:34;;;;;;;25.90;14.90;;;;;;;7.10;82.29;101711.13;5083725;28;20114;-77
2021/03/26 03:11:07;;;;;;;27.90;15.47;;;;;;;7.00;83.51;101711.44;5096001;28;20411;-76
2021/03/26 03:13:38;;;;;;;29.57;15.23;;;;;;;7.03;83.61;101718.41;5071842;28;20039;-77
2021/03/26 03:16:13;;;;;;;29.80;16.20;;;;;;;7.00;83.90;101729.34;5074633;28;20102;-77
2021/03/26 03:18:51;;;;;;;27.43;16.07;;;;;;;7.02;83.97;101717.53;5081433;28;20039;-77
2021/03/26 03:21:35;;;;;;;29.43;17.07;;;;;;;7.11;83.67;101722.22;5109720;28;20023;-77
2021/03/26 03:24:10;;;;;;;28.73;16.27;;;;;;;7.03;83.65;101713.28;5090033;28;20024;-77
2021/03/26 03:27:04;;;;;;;28.93;16.60;;;;;;;7.02;84.83;101709.84;5098948;28;20110;-76
2021/03/26 03:29:43;;;;;;;31.37;17.07;;;;;;;7.05;84.33;101711.69;5071685;28;20032;-77
2021/03/26 03:32:30;;;;;;;34.07;18.47;;;;;;;7.12;84.54;101708.63;5070141;28;20052;-77
2021/03/26 03:35:07;;;;;;;28.08;18.08;;;;;;;7.06;84.52;101700.66;5089461;28;20078;-76
2021/03/26 03:37:39;;;;;;;39.87;19.13;;;;;;;7.07;84.62;101707.53;5096552;28;20085;-75
2021/03/26 03:40:17;;;;;;;30.60;16.77;;;;;;;7.19;83.96;101700.50;5081323;28;20066;-77
2021/03/26 03:42:51;;;;;;;32.57;17.97;;;;;;;7.16;83.93;101700.38;5108861;28;20035;-78
2021/03/26 03:45:26;;;;;;;30.40;17.40;;;;;;;7.13;84.62;101695.06;5087666;28;20081;-77
2021/03/26 03:48:10;;;;;;;32.27;18.73;;;;;;;7.16;84.37;101697.81;5090951;28;20111;-77
2021/03/26 03:50:49;;;;;;;30.87;18.30;;;;;;;7.19;83.78;101695.41;5096174;28;20024;-77
2021/03/26 03:53:24;;;;;;;34.87;20.10;;;;;;;7.16;84.15;101701.25;5109662;28;20409;-77
2021/03/26 03:56:07;;;;;;;32.77;18.43;;;;;;;7.14;84.29;101695.16;5109822;28;20042;-78
2021/03/26 03:58:42;;;;;;;34.27;19.10;;;;;;;7.13;84.35;101697.63;5110349;28;20023;-78
2021/03/26 04:01:22;;;;;;;39.00;19.60;;;;;;;7.13;84.20;101695.06;5109320;28;20397;-77
2021/03/26 04:03:51;;;;;;;35.70;19.37;;;;;;;7.09;84.84;101690.59;5106614;28;20388;-77
2021/03/26 04:06:37;;;;;;;29.23;17.97;;;;;;;7.19;84.48;101685.19;5097526;28;20029;-77
2021/03/26 04:09:10;;;;;;;34.53;19.53;;;;;;;7.06;85.14;101682.78;5089301;28;20034;-78
2021/03/26 04:11:40;;;;;;;36.93;19.63;;;;;;;7.12;84.67;101671.19;5102609;28;20020;-77
2021/03/26 04:14:12;;;;;;;34.53;19.27;;;;;;;7.13;84.49;101679.72;5108959;28;20032;-76
2021/03/26 04:16:41;;;;;;;38.00;20.37;;;;;;;7.12;84.96;101680.53;5091156;28;20400;-76
2021/03/26 04:19:40;;;;;;;29.70;19.10;;;;;;;7.12;84.64;101673.75;5091049;28;20031;-76
2021/03/26 04:22:16;;;;;;;39.73;20.37;;;;;;;7.04;85.22;101676.72;5075766;28;20126;-76
2021/03/26 04:24:48;;;;;;;33.30;19.43;;;;;;;7.05;85.40;101676.78;5109203;28;20063;-77
2021/03/26 04:27:28;;;;;;;32.90;19.23;;;;;;;7.06;84.82;101670.88;5109227;28;20031;-76
2021/03/26 04:30:00;;;;;;;36.03;19.83;;;;;;;7.06;85.43;101677.69;5094084;28;20023;-76
2021/03/26 04:32:27;;;;;;;34.67;20.37;;;;;;;7.01;85.48;101668.91;5094277;28;20507;-77
2021/03/26 04:34:53;;;;;;;32.07;18.87;;;;;;;7.08;84.84;101678.63;5102033;28;20374;-78
2021/03/26 04:37:28;;;;;;;35.63;19.50;;;;;;;7.07;85.54;101670.09;5094684;28;20458;-76
2021/03/26 04:40:14;;;;;;;37.43;20.87;;;;;;;7.09;84.83;101667.59;5100094;28;20024;-77
2021/03/26 04:43:15;;;;;;;27.73;14.98;;;;;;;7.06;84.90;101663.22;5090411;28;20066;-76
2021/03/26 04:45:49;;;;;;;33.90;19.40;;;;;;;7.10;85.11;101661.69;5084472;28;21077;-76
2021/03/26 04:48:19;;;;;;;37.17;20.00;;;;;;;7.11;84.79;101668.56;5092304;28;20110;-77
2021/03/26 04:50:59;;;;;;;32.57;18.30;;;;;;;7.08;84.93;101670.97;5092179;28;20028;-77
2021/03/26 04:53:32;;;;;;;33.53;18.73;;;;;;;7.07;84.57;101669.22;5092298;28;20055;-76
2021/03/26 04:56:01;;;;;;;34.13;19.00;;;;;;;7.10;85.24;101643.81;5092338;28;20385;-78
2021/03/26 04:58:31;;;;;;;36.33;18.97;;;;;;;7.10;84.57;101651.47;5105523;28;20080;-76
2021/03/26 05:01:10;;;;;;;34.00;18.73;;;;;;;7.11;84.86;101650.69;5094341;28;20388;-76
2021/03/26 05:03:37;;;;;;;33.77;18.93;;;;;;;7.11;84.71;101653.22;5095895;28;20039;-78
2021/03/26 05:06:17;;;;;;;32.10;18.37;;;;;;;7.18;84.65;101642.53;5092072;28;20047;-77
2021/03/26 05:08:46;;;;;;;32.43;18.47;;;;;;;7.08;84.56;101646.28;5080835;28;20027;-77
2021/03/26 05:11:13;;;;;;;37.83;18.10;;;;;;;7.16;84.67;101649.25;5111885;28;20027;-76
2021/03/26 05:13:44;;;;;;;31.80;17.40;;;;;;;7.15;84.55;101644.91;5093847;28;20019;-76
2021/03/26 05:16:23;;;;;;;34.17;17.83;;;;;;;7.15;83.99;101643.28;5112119;28;20069;-76
2021/03/26 05:18:56;;;;;;;35.63;17.57;;;;;;;7.15;84.46;101643.28;5111985;28;20034;-77
2021/03/26 05:21:29;;;;;;;29.40;16.97;;;;;;;7.14;84.12;101635.50;5111710;28;20098;-77
2021/03/26 05:24:17;;;;;;;29.47;17.03;;;;;;;7.16;84.07;101641.59;5076778;28;20451;-76
2021/03/26 05:26:43;;;;;;;31.20;17.70;;;;;;;7.11;84.14;101635.34;5093968;28;20413;-76
2021/03/26 05:29:09;;;;;;;30.30;17.83;;;;;;;7.17;84.22;101635.69;5112744;28;20020;-76
2021/03/26 05:32:05;;;;;;;35.65;16.90;;;;;;;7.13;84.35;101633.75;5093069;28;20493;-76
2021/03/26 05:34:48;;;;;;;29.63;17.23;;;;;;;7.15;84.24;101635.59;5111670;28;20445;-76
2021/03/26 05:37:24;;;;;;;31.10;17.57;;;;;;;7.21;84.43;101635.03;5100420;28;20080;-77
2021/03/26 05:39:57;;;;;;;30.73;17.47;;;;;;;7.17;84.42;101635.69;5103270;28;20043;-76
2021/03/26 05:42:43;;;;;;;34.40;18.27;;;;;;;7.16;84.30;101632.25;5072543;28;20473;-77
2021/03/26 05:45:40;;;;;;;32.67;17.33;;;;;;;7.21;84.20;101627.38;5104002;28;20027;-76
2021/03/26 05:48:23;;;;;;;32.63;17.43;;;;;;;7.24;83.69;101624.97;5111549;28;20538;-77
2021/03/26 05:51:10;;;;;;;32.77;17.40;;;;;;;7.25;84.30;101630.94;5111247;28;20020;-78
2021/03/26 05:53:53;;;;;;;31.48;17.38;;;;;;;7.24;84.42;101622.41;5099211;28;20198;-76
2021/03/26 05:56:27;;;;;;;36.03;19.07;;;;;;;7.29;84.21;101626.06;5096316;28;20108;-76
2021/03/26 05:59:04;;;;;;;35.77;17.30;;;;;;;7.31;83.91;101639.78;5093728;28;20047;-76
2021/03/26 06:01:45;;;;;;;32.23;16.80;;;;;;;7.32;83.80;101630.44;5078060;28;20035;-77
2021/03/26 06:04:32;;;;;;;32.93;16.67;;;;;;;7.32;83.73;101621.09;5090881;28;20027;-77
2021/03/26 06:07:22;;;;;;;31.23;17.00;;;;;;;7.37;83.48;101624.75;5105590;28;20027;-76
2021/03/26 06:10:01;;;;;;;36.37;17.03;;;;;;;7.37;83.83;101627.31;5110974;28;20035;-76
2021/03/26 06:12:30;;;;;;;29.03;16.53;;;;;;;7.46;83.17;101625.19;5110820;28;20054;-77
2021/03/26 06:15:16;;;;;;;30.20;16.30;;;;;;;7.51;82.88;101624.56;5092343;28;20503;-77
2021/03/26 06:17:44;;;;;;;23.00;12.38;;;;;;;7.51;82.72;101616.88;5110947;28;20025;-77
2021/03/26 06:20:34;;;;;;;36.50;16.90;;;;;;;7.51;82.47;101624.56;5110730;28;20063;-74
2021/03/26 06:23:27;;;;;;;35.93;16.80;;;;;;;7.49;82.44;101616.81;5101607;28;20114;-76
2021/03/26 06:26:32;;;;;;;28.43;16.20;;;;;;;7.45;82.56;101613.22;5090490;28;20370;-77
2021/03/26 06:29:26;;;;;;;30.13;16.37;;;;;;;7.55;82.12;101618.78;5032286;28;20066;-77
2021/03/26 06:32:16;;;;;;;31.30;16.27;;;;;;;7.52;82.36;101624.63;5090042;28;20024;-76
2021/03/26 06:35:08;;;;;;;30.50;16.53;;;;;;;7.57;82.32;101617.19;5090260;28;20040;-75
2021/03/26 06:38:04;;;;;;;35.23;16.33;;;;;;;7.71;81.70;101616.16;5090448;28;20053;-76
2021/03/26 06:41:18;;;;;;;29.60;16.83;;;;;;;7.80;81.42;101614.00;5071813;28;20028;-75
2021/03/26 06:44:17;;;;;;;26.60;15.87;;;;;;;7.84;80.94;101612.50;5017543;28;20574;-76
2021/03/26 06:46:50;;;;;;;26.63;15.37;;;;;;;7.86;81.04;101608.34;5089821;28;20035;-76
2021/03/26 06:49:51;;;;;;;26.37;15.93;;;;;;;8.18;81.05;101613.25;5087757;28;20039;-76
2021/03/26 06:52:22;;;;;;;28.07;15.47;;;;;;;9.19;77.96;101603.19;5073173;28;20055;-76
2021/03/26 06:55:12;;;;;;;24.73;14.43;;;;;;;9.71;74.54;101597.56;5090000;28;20100;-76
2021/03/26 06:57:56;;;;;;;28.47;14.73;;;;;;;10.14;74.55;101604.38;5090224;28;20024;-76
2021/03/26 07:00:34;;;;;;;27.05;14.52;;;;;;;10.87;69.70;101587.34;5072411;28;20032;-74
2021/03/26 07:03:29;;;;;;;30.10;14.48;;;;;;;11.98;67.31;101589.22;5071555;28;20023;-75
2021/03/26 07:06:41;;;;;;;25.50;12.85;;;;;;;12.82;65.43;101592.47;5089800;28;20028;-76
2021/03/26 07:09:27;;;;;;;20.42;12.52;;;;;;;13.25;61.47;101591.88;5091296;28;20041;-76
2021/03/26 07:12:17;;;;;;;24.15;12.02;;;;;;;13.65;60.67;101601.44;5091425;28;20034;-77
2021/03/26 07:14:58;;;;;;;19.10;11.65;;;;;;;14.14;59.81;101606.84;5109216;28;20492;-77
2021/03/26 07:17:49;;;;;;;24.85;12.60;;;;;;;14.37;59.00;101599.59;5088018;28;20406;-75
2021/03/26 07:20:35;;;;;;;21.48;12.30;;;;;;;14.95;56.59;101599.84;5088764;28;20721;-75
2021/03/26 07:23:29;;;;;;;18.10;11.43;;;;;;;15.35;55.93;101597.97;5070829;28;20020;-75
2021/03/26 07:26:21;;;;;;;20.85;11.23;;;;;;;14.81;55.40;101593.56;5088602;28;20116;-74
2021/03/26 07:28:46;;;;;;;23.00;12.23;;;;;;;15.38;55.46;101595.44;5088961;28;20036;-75
2021/03/26 07:31:41;;;;;;;19.73;12.00;;;;;;;15.91;53.09;101600.56;5080258;28;20133;-75
2021/03/26 07:34:29;;;;;;;21.55;10.82;;;;;;;15.88;51.62;101595.34;5108554;28;20019;-75
2021/03/26 07:37:22;;;;;;;24.65;11.93;;;;;;;15.93;53.41;101604.03;5090577;28;20111;-75
2021/03/26 07:40:01;;;;;;;18.20;11.07;;;;;;;16.19;53.39;101597.47;5090625;28;20024;-75
2021/03/26 07:42:38;;;;;;;23.65;12.10;;;;;;;16.64;50.39;101590.25;5106829;28;20019;-74
2021/03/26 07:45:21;;;;;;;16.65;11.32;;;;;;;16.53;51.78;101592.69;5088068;28;20039;-74
2021/03/26 07:48:12;;;;;;;20.13;11.30;;;;;;;16.67;50.32;101596.38;5096550;28;20098;-74
2021/03/26 07:50:46;;;;;;;19.42;11.15;;;;;;;17.21;50.29;101581.28;5089561;28;20024;-75
2021/03/26 07:53:18;;;;;;;21.92;10.82;;;;;;;16.53;51.81;101597.88;5088228;28;20532;-75
2021/03/26 07:55:59;;;;;;;16.25;10.68;;;;;;;17.13;49.57;101580.34;5088492;28;20547;-74
2021/03/26 07:58:27;;;;;;;18.75;10.90;;;;;;;16.56;49.19;101594.47;5088258;28;20034;-74
2021/03/26 08:01:26;;;;;;;17.13;10.05;;;;;;;17.60;49.58;101598.94;5070338;28;20031;-73
2021/03/26 08:04:13;;;;;;;18.42;11.10;;;;;;;17.48;49.53;101593.63;5030193;28;20035;-71
2021/03/26 08:07:11;;;;;;;;;;;;;;;17.97;46.95;101589.66;5092567;28;20028;-72
2021/03/26 08:10:13;;;;;;;19.92;10.82;;;;;;;17.98;47.38;101587.06;5046376;28;19920;-72
2021/03/26 08:13:02;;;;;;;20.23;10.98;;;;;;;17.68;47.79;101589.47;5091871;28;20020;-75
2021/03/26 08:15:36;;;;;;;20.20;11.88;;;;;;;18.19;45.81;101588.88;5091778;28;20103;-74
2021/03/26 08:18:27;;;;;;;21.30;10.93;;;;;;;18.67;46.89;101595.16;5091794;28;20024;-74
2021/03/26 08:20:52;;;;;;;15.27;10.65;;;;;;;19.10;43.43;101590.88;5091541;28;20028;-74
2021/03/26 08:23:42;;;;;;;26.35;12.82;;;;;;;19.69;43.83;101592.59;5091876;28;20106;-73
2021/03/26 08:26:31;;;;;;;23.73;12.25;;;;;;;20.02;42.97;101594.25;5091605;28;20485;-74
2021/03/26 08:29:16;;;;;;;19.45;11.50;;;;;;;19.79;41.15;101589.09;5091994;28;20027;-73
2021/03/26 08:32:12;;;;;;;19.58;11.55;;;;;;;20.11;41.23;101590.75;5091452;28;20063;-74
2021/03/26 08:35:20;;;;;;;22.00;11.75;;;;;;;19.10;45.61;101595.22;5091483;28;20032;-72
2021/03/26 08:38:11;;;;;;;18.48;11.77;;;;;;;20.38;42.88;101595.84;5091608;28;20031;-74
2021/03/26 08:40:58;;;;;;;22.30;12.18;;;;;;;19.17;44.83;101602.16;5080683;28;20023;-73
2021/03/26 08:43:24;;;;;;;17.38;11.15;;;;;;;19.83;43.64;101595.19;5093515;28;20031;-73
2021/03/26 08:45:59;;;;;;;20.50;11.63;;;;;;;20.61;41.84;101593.16;5111110;28;20028;-73
2021/03/26 08:48:35;;;;;;;19.02;11.57;;;;;;;20.99;41.53;101586.81;5112001;28;20035;-74
2021/03/26 08:51:19;;;;;;;;;;;;;;;21.12;40.61;101597.16;5111575;28;20115;-74
2021/03/26 08:54:26;;;;;;;19.73;11.40;;;;;;;20.85;41.55;101588.69;5089198;28;19919;-73
2021/03/26 08:57:23;;;;;;;17.40;11.43;;;;;;;20.86;39.78;101582.56;5056361;28;20047;-75
2021/03/26 09:00:14;;;;;;;18.17;10.95;;;;;;;20.53;40.44;101578.44;5072804;28;20043;-73
2021/03/26 09:03:10;;;;;;;18.75;10.95;;;;;;;20.75;40.58;101582.63;5090605;28;20546;-74
2021/03/26 09:05:53;;;;;;;21.37;11.30;;;;;;;20.63;41.34;101580.09;5090948;28;20137;-72
2021/03/26 09:08:37;;;;;;;22.40;12.60;;;;;;;20.72;40.04;101577.44;5090921;28;20028;-73
2021/03/26 09:11:12;;;;;;;18.27;10.43;;;;;;;21.50;39.91;101577.72;5090771;28;20032;-71
2021/03/26 09:13:58;;;;;;;19.77;10.63;;;;;;;20.79;40.77;101577.38;5072689;28;20060;-74
2021/03/26 09:16:37;;;;;;;18.40;10.05;;;;;;;20.80;40.76;101584.31;5087848;28;20022;-75
2021/03/26 09:19:19;;;;;;;21.15;10.20;;;;;;;21.30;40.54;101571.81;5074899;28;20054;-73
2021/03/26 09:22:10;;;;;;;16.95;9.65;;;;;;;21.25;38.94;101577.06;5079530;28;20101;-73
2021/03/26 09:24:46;;;;;;;19.48;9.73;;;;;;;20.90;40.91;101566.88;5110786;28;20035;-73
2021/03/26 09:27:25;;;;;;;16.95;9.68;;;;;;;20.36;40.51;101571.50;5110647;28;20679;-75
2021/03/26 09:30:11;;;;;;;17.58;9.45;;;;;;;20.95;39.60;101559.00;5111175;28;20060;-74
2021/03/26 09:32:45;;;;;;;14.05;8.00;;;;;;;22.11;38.45;101556.13;5110638;28;20024;-74
2021/03/26 09:35:37;;;;;;;18.95;7.93;;;;;;;21.10;39.05;101554.50;5092487;28;20495;-74
2021/03/26 09:38:27;;;;;;;13.18;7.60;;;;;;;20.13;39.85;101558.56;5105213;28;20051;-74
2021/03/26 09:41:07;;;;;;;12.00;7.30;;;;;;;20.54;40.15;101557.53;5099175;28;20031;-75
2021/03/26 09:43:45;;;;;;;16.83;7.13;;;;;;;21.18;38.39;101548.38;5109741;28;20031;-72
2021/03/26 09:46:44;;;;;;;14.48;7.15;;;;;;;21.54;39.39;101553.28;5096483;28;20020;-74
2021/03/26 09:49:24;;;;;;;13.15;6.13;;;;;;;20.96;38.22;101551.16;5090324;28;20035;-73
2021/03/26 09:52:17;;;;;;;13.75;6.45;;;;;;;20.44;38.57;101530.59;5071536;28;20023;-72
2021/03/26 09:54:49;;;;;;;12.93;6.07;;;;;;;19.58;39.75;101548.31;5071822;28;20027;-73
2021/03/26 09:57:41;;;;;;;9.50;5.38;;;;;;;20.30;39.80;101540.22;5090081;28;20028;-73
2021/03/26 10:00:25;;;;;;;8.85;5.57;;;;;;;20.86;38.80;101536.44;5090593;28;20028;-73
2021/03/26 10:03:05;;;;;;;12.05;6.03;;;;;;;21.26;38.04;101530.91;5071406;28;20055;-73
2021/03/26 10:05:30;;;;;;;8.77;4.68;;;;;;;21.42;36.65;101511.56;5089732;28;20032;-75
2021/03/26 10:08:10;;;;;;;9.48;5.10;;;;;;;20.58;36.67;101516.63;5089811;28;20042;-74
2021/03/26 10:13:12;;;;;;;10.57;5.07;;;;;;;21.18;37.52;101517.00;5089198;28;20066;-71
2021/03/26 10:15:39;;;;;;;10.88;4.32;;;;;;;22.38;36.69;101512.16;5086537;28;20545;-74
2021/03/26 10:18:28;;;;;;;9.48;4.47;;;;;;;21.58;35.71;101518.38;5089537;28;20074;-73
2021/03/26 10:21:09;;;;;;;8.57;3.88;;;;;;;22.33;35.41;101510.47;5071372;28;20106;-75
2021/03/26 10:23:37;;;;;;;9.18;4.43;;;;;;;22.16;35.12;101512.47;5071353;28;20028;-73
2021/03/26 10:26:40;;;;;;;8.10;4.38;;;;;;;21.95;37.28;101517.94;5089028;28;20032;-74
2021/03/26 10:29:18;;;;;;;9.35;4.82;;;;;;;20.84;36.60;101526.88;5089578;28;20058;-72
2021/03/26 10:31:46;;;;;;;11.32;4.85;;;;;;;21.02;36.82;101506.69;5071042;28;20050;-74
2021/03/26 10:34:18;;;;;;;9.13;4.80;;;;;;;19.52;38.19;101505.75;5089361;28;20389;-74
2021/03/26 10:37:10;;;;;;;9.85;4.82;;;;;;;18.90;40.26;101509.28;5071208;28;20059;-73
2021/03/26 10:39:58;;;;;;;10.82;4.18;;;;;;;19.08;40.53;101513.59;5020652;28;20059;-74
2021/03/26 10:42:33;;;;;;;11.23;4.22;;;;;;;18.07;41.34;101517.75;5088183;28;20478;-74
2021/03/26 10:45:26;;;;;;;8.80;2.28;;;;;;;18.45;39.78;101504.84;5070930;28;20471;-73
2021/03/26 10:47:59;;;;;;;10.00;2.42;;;;;;;18.36;39.35;101508.31;5089119;28;20028;-73
2021/03/26 10:50:38;;;;;;;12.43;2.15;;;;;;;17.20;42.56;101512.91;5089056;28;20038;-73
2021/03/26 10:53:16;;;;;;;6.63;1.92;;;;;;;18.33;40.15;101510.91;5075123;28;20027;-73
2021/03/26 10:55:47;;;;;;;10.38;2.45;;;;;;;18.89;39.66;101500.63;5109233;28;20030;-73
2021/03/26 10:58:32;;;;;;;7.88;2.53;;;;;;;18.38;39.10;101482.31;5097862;28;20028;-74
2021/03/26 11:01:01;;;;;;;8.75;2.08;;;;;;;19.99;38.12;101486.47;5089176;28;20039;-74
2021/03/26 11:03:35;;;;;;;11.13;1.90;;;;;;;20.70;36.64;101487.81;5088623;28;20059;-75
2021/03/26 11:06:10;;;;;;;5.32;1.88;;;;;;;20.25;35.86;101479.38;5102539;28;20431;-73
2021/03/26 11:09:02;;;;;;;10.63;2.15;;;;;;;19.19;37.63;101491.91;5097625;28;20756;-73
2021/03/26 11:11:54;;;;;;;6.70;2.83;;;;;;;18.39;41.48;101478.84;5088363;28;20023;-72
2021/03/26 11:14:45;;;;;;;5.75;2.45;;;;;;;18.27;39.04;101479.69;5070475;28;20400;-73
2021/03/26 11:17:18;;;;;;;5.22;2.25;;;;;;;18.97;40.85;101495.41;5074867;28;20032;-73
2021/03/26 11:20:08;;;;;;;7.05;2.25;;;;;;;20.39;38.16;101476.66;5088692;28;20031;-73
2021/03/26 11:22:37;;;;;;;7.20;2.30;;;;;;;20.67;37.06;101457.34;5087942;28;20481;-72
2021/03/26 11:25:23;;;;;;;8.77;2.95;;;;;;;20.47;35.60;101464.47;5088326;28;20024;-73
2021/03/26 11:27:53;;;;;;;7.35;2.72;;;;;;;20.93;35.77;101454.53;5088122;28;20031;-74
2021/03/26 11:30:33;;;;;;;6.20;3.13;;;;;;;20.55;38.05;101452.25;5071517;28;20481;-73
2021/03/26 11:33:36;;;;;;;8.23;2.70;;;;;;;20.91;36.48;101460.66;5088633;28;20497;-72
2021/03/26 11:36:07;;;;;;;5.85;2.38;;;;;;;21.07;36.33;101451.78;5077495;28;20056;-73
2021/03/26 11:38:34;;;;;;;6.18;2.63;;;;;;;20.35;37.67;101446.25;5093073;28;20020;-72
2021/03/26 11:41:09;;;;;;;8.77;2.67;;;;;;;19.80;37.41;101450.03;5102448;28;20028;-73
2021/03/26 11:43:43;;;;;;;6.25;2.55;;;;;;;19.46;38.67;101445.81;5094656;28;20060;-73
2021/03/26 11:46:21;;;;;;;4.93;2.65;;;;;;;18.32;42.33;101446.75;5094687;28;20024;-74
2021/03/26 11:48:48;;;;;;;10.20;2.88;;;;;;;17.94;41.48;101449.25;5094612;28;20050;-74
2021/03/26 11:51:27;;;;;;;7.70;2.33;;;;;;;17.09;41.76;101442.75;5092707;28;20032;-74
2021/03/26 11:54:03;;;;;;;5.70;2.85;;;;;;;17.25;43.42;101451.50;5094614;28;20023;-73
2021/03/26 11:56:37;;;;;;;7.88;2.97;;;;;;;17.17;44.39;101442.78;5093636;28;20016;-72
2021/03/26 11:59:13;;;;;;;4.88;2.53;;;;;;;17.10;43.87;101441.00;5076171;28;20043;-72
2021/03/26 12:01:54;;;;;;;6.93;2.63;;;;;;;16.97;44.36;101434.03;5093938;28;20032;-73
2021/03/26 12:04:34;;;;;;;8.15;2.60;;;;;;;16.79;45.67;101440.78;5083366;28;20055;-73
2021/03/26 12:07:16;;;;;;;7.40;2.85;;;;;;;16.90;46.12;101432.22;5114559;28;20086;-73
2021/03/26 12:09:51;;;;;;;7.22;2.60;;;;;;;16.63;46.16;101438.03;5096157;28;20031;-73
2021/03/26 12:12:29;;;;;;;6.28;2.78;;;;;;;16.62;44.87;101421.63;5114558;28;20062;-73